Time;durP1;ratioP1;P1;durP2;ratioP2;P2;SDS_P1;SDS_P2;PMS_P1;PMS_P2;Temp;Humidity;BMP_temperature;BMP_pressure;BME280_temperature;BME280_humidity;BME280_pressure;Samples;Min_cycle;Max_cycle;Signal;HPM_P1;HPM_P2
2022/04/23 00:01:47;;;;;;;4.93;4.13;;;20.20;94.90;;;;;;4240602;27;20217;-76
2022/04/23 00:03:49;;;;;;;5.50;4.20;;;20.20;95.00;;;;;;4241244;27;20221;-76
2022/04/23 00:05:52;;;;;;;4.75;4.07;;;20.20;94.90;;;;;;4241441;27;20215;-77
2022/04/23 00:07:54;;;;;;;3.70;3.40;;;20.20;95.00;;;;;;4240889;27;20569;-77
2022/04/23 00:09:57;;;;;;;4.93;4.50;;;20.20;95.00;;;;;;4241139;27;20253;-76
2022/04/23 00:11:59;;;;;;;3.83;3.53;;;20.20;94.90;;;;;;4239342;27;20278;-77
2022/04/23 00:14:02;;;;;;;4.22;3.75;;;20.20;94.90;;;;;;4239813;27;20221;-76
2022/04/23 00:16:06;;;;;;;4.18;3.78;;;20.20;95.40;;;;;;4236181;27;20266;-77
2022/04/23 00:18:09;;;;;;;4.05;3.65;;;20.20;94.90;;;;;;4241633;27;20294;-77
2022/04/23 00:20:12;;;;;;;4.60;3.75;;;20.20;94.90;;;;;;4236529;27;21010;-77
2022/04/23 00:22:15;;;;;;;5.55;4.15;;;20.20;94.90;;;;;;4241535;27;20270;-77
2022/04/23 00:24:18;;;;;;;3.95;3.65;;;20.20;94.90;;;;;;4239354;27;20217;-77
2022/04/23 00:26:20;;;;;;;4.20;3.80;;;20.20;94.80;;;;;;4240311;27;20726;-76
2022/04/23 00:28:22;;;;;;;4.20;3.80;;;20.20;94.80;;;;;;4240563;27;20681;-77
2022/04/23 00:30:25;;;;;;;5.00;4.10;;;20.20;94.90;;;;;;4240924;27;20225;-76
2022/04/23 00:32:30;;;;;;;4.20;3.83;;;20.20;94.80;;;;;;4237719;27;20246;-77
2022/04/23 00:34:32;;;;;;;5.18;4.30;;;20.20;95.00;;;;;;4240517;27;20281;-76
2022/04/23 00:36:35;;;;;;;4.45;4.05;;;20.20;95.20;;;;;;4239853;27;20262;-77
2022/04/23 00:38:39;;;;;;;4.60;4.20;;;20.20;94.90;;;;;;4241054;27;20665;-77
2022/04/23 00:40:42;;;;;;;4.78;3.85;;;20.20;94.90;;;;;;4240357;27;20995;-77
2022/04/23 00:42:51;;;;;;;4.40;4.00;;;20.10;94.80;;;;;;4239222;28;20261;-76
2022/04/23 00:44:53;;;;;;;4.10;3.75;;;20.10;94.90;;;;;;4238522;28;20561;-76
2022/04/23 00:46:55;;;;;;;4.13;3.83;;;20.10;94.90;;;;;;4238552;28;20273;-77
2022/04/23 00:48:59;;;;;;;4.38;3.97;;;20.10;94.80;;;;;;4238360;28;20222;-77
2022/04/23 00:51:03;;;;;;;4.57;4.18;;;20.20;95.00;;;;;;4238570;28;20244;-77
2022/04/23 00:53:06;;;;;;;4.47;4.07;;;20.10;94.80;;;;;;4237313;28;20217;-77
2022/04/23 00:55:09;;;;;;;4.38;3.97;;;20.10;94.90;;;;;;4238201;28;20217;-77
2022/04/23 00:57:12;;;;;;;4.40;4.00;;;20.10;94.80;;;;;;4239049;28;20266;-77
2022/04/23 00:59:15;;;;;;;4.38;3.80;;;20.10;95.00;;;;;;4237576;28;20262;-77
2022/04/23 01:01:18;;;;;;;4.40;3.88;;;20.10;94.80;;;;;;4239960;27;20610;-76
2022/04/23 01:03:22;;;;;;;4.30;3.90;;;20.10;95.00;;;;;;4237401;28;20208;-77
2022/04/23 01:05:26;;;;;;;5.50;4.07;;;20.10;95.00;;;;;;4238704;27;20263;-77
2022/04/23 01:07:29;;;;;;;5.50;4.28;;;20.10;94.90;;;;;;4240149;27;21185;-79
2022/04/23 01:09:31;;;;;;;4.40;4.00;;;20.10;95.00;;;;;;4239480;27;20224;-79
2022/04/23 01:11:34;;;;;;;4.25;3.85;;;20.10;95.00;;;;;;4238451;28;20281;-78
2022/04/23 01:13:36;;;;;;;5.80;4.57;;;20.10;95.00;;;;;;4238821;28;20258;-77
2022/04/23 01:15:39;;;;;;;4.28;3.88;;;20.10;95.00;;;;;;4236464;28;20271;-77
2022/04/23 01:17:43;;;;;;;4.57;3.80;;;20.10;94.90;;;;;;4240012;27;20214;-77
2022/04/23 01:19:45;;;;;;;4.40;3.95;;;20.10;95.00;;;;;;4237925;27;20273;-77
2022/04/23 01:21:48;;;;;;;4.80;4.30;;;20.00;94.90;;;;;;4238395;28;20221;-77
2022/04/23 01:23:53;;;;;;;4.20;3.80;;;20.00;95.00;;;;;;4239308;28;20224;-77
2022/04/23 01:25:55;;;;;;;4.45;3.88;;;20.00;94.90;;;;;;4242351;28;20661;-77
2022/04/23 01:27:58;;;;;;;4.80;3.90;;;20.10;95.00;;;;;;4239698;27;20209;-77
2022/04/23 01:30:01;;;;;;;6.63;4.47;;;20.00;94.90;;;;;;4239408;27;20270;-77
2022/04/23 01:32:05;;;;;;;4.78;4.05;;;20.10;95.10;;;;;;4238531;27;20258;-77
2022/04/23 01:34:07;;;;;;;4.45;3.88;;;20.00;94.90;;;;;;4239256;27;20653;-77
2022/04/23 01:36:09;;;;;;;4.55;4.05;;;20.10;95.00;;;;;;4242456;27;21012;-77
2022/04/23 01:38:14;;;;;;;3.92;3.63;;;20.00;94.90;;;;;;4243906;27;20282;-76
2022/04/23 01:40:17;;;;;;;4.50;4.10;;;20.00;95.00;;;;;;4243786;27;20271;-77
2022/04/23 01:42:20;;;;;;;3.75;3.45;;;20.10;95.00;;;;;;4238978;27;20262;-77
2022/04/23 01:44:22;;;;;;;4.57;4.18;;;20.00;95.30;;;;;;4239832;27;20217;-77
2022/04/23 01:46:24;;;;;;;4.97;4.22;;;20.00;95.00;;;;;;4241588;27;20224;-77
2022/04/23 01:48:27;;;;;;;4.57;4.00;;;20.00;95.10;;;;;;4241845;27;20220;-77
2022/04/23 01:50:29;;;;;;;4.95;4.25;;;20.00;95.10;;;;;;4243649;27;20225;-77
2022/04/23 01:52:31;;;;;;;4.22;3.83;;;20.00;95.10;;;;;;4242716;27;20638;-77
2022/04/23 01:54:36;;;;;;;4.07;3.67;;;20.00;95.10;;;;;;4243618;27;20856;-77
2022/04/23 01:56:38;;;;;;;4.03;3.63;;;20.00;95.20;;;;;;4242529;27;20224;-77
2022/04/23 01:58:40;;;;;;;4.40;4.00;;;20.00;95.10;;;;;;4241986;27;20669;-77
2022/04/23 02:00:44;;;;;;;4.82;4.32;;;20.10;95.20;;;;;;4242254;27;20274;-77
2022/04/23 02:02:47;;;;;;;4.57;4.10;;;20.00;95.20;;;;;;4240688;27;20279;-77
2022/04/23 02:04:49;;;;;;;4.05;3.75;;;20.00;95.30;;;;;;4239206;27;20213;-77
2022/04/23 02:06:51;;;;;;;4.63;3.92;;;20.00;95.20;;;;;;4243095;27;20205;-77
2022/04/23 02:08:54;;;;;;;4.50;4.10;;;20.00;95.20;;;;;;4242692;27;20221;-77
2022/04/23 02:10:58;;;;;;;4.28;3.88;;;20.00;95.00;;;;;;4242814;27;20239;-77
2022/04/23 02:13:00;;;;;;;4.32;3.92;;;20.00;95.20;;;;;;4241097;27;20241;-77
2022/04/23 02:15:03;;;;;;;4.70;4.30;;;20.00;95.10;;;;;;4242443;27;20209;-77
2022/04/23 02:17:05;;;;;;;4.03;3.67;;;20.00;95.10;;;;;;4241281;27;20210;-77
2022/04/23 02:19:07;;;;;;;4.65;4.07;;;20.00;95.20;;;;;;4241503;27;20267;-77
2022/04/23 02:21:10;;;;;;;4.68;4.28;;;20.00;95.20;;;;;;4241064;27;20213;-77
2022/04/23 02:23:13;;;;;;;4.43;4.03;;;20.00;95.10;;;;;;4242730;27;20255;-77
2022/04/23 02:25:16;;;;;;;3.92;3.63;;;20.00;95.30;;;;;;4242245;27;20488;-77
2022/04/23 02:27:20;;;;;;;4.15;3.75;;;20.00;95.50;;;;;;4241432;27;20280;-77
2022/04/23 02:29:22;;;;;;;4.53;4.13;;;20.00;95.20;;;;;;4241261;27;20256;-77
2022/04/23 02:31:25;;;;;;;5.60;4.22;;;20.00;95.20;;;;;;4244032;27;20205;-78
2022/04/23 02:33:27;;;;;;;5.07;4.57;;;20.00;95.20;;;;;;4238209;27;20282;-78
2022/04/23 02:35:29;;;;;;;4.55;4.15;;;20.00;95.20;;;;;;4241305;27;20217;-77
2022/04/23 02:37:34;;;;;;;5.10;4.28;;;20.00;95.30;;;;;;4238283;27;20209;-78
2022/04/23 02:39:37;;;;;;;4.15;3.75;;;19.90;95.20;;;;;;4239702;27;20268;-78
2022/04/23 02:41:39;;;;;;;4.80;4.05;;;20.00;95.20;;;;;;4237467;27;20259;-78
2022/04/23 02:43:43;;;;;;;4.50;4.10;;;19.90;95.10;;;;;;4240692;27;20218;-78
2022/04/23 02:45:45;;;;;;;4.38;3.97;;;19.90;95.20;;;;;;4242070;27;20369;-78
2022/04/23 02:47:49;;;;;;;4.75;4.25;;;19.90;95.20;;;;;;4241087;27;20213;-78
2022/04/23 02:49:51;;;;;;;4.15;3.85;;;19.90;95.10;;;;;;4242341;27;20614;-78
2022/04/23 02:51:54;;;;;;;4.38;3.97;;;19.90;95.20;;;;;;4238453;27;20301;-78
2022/04/23 02:53:56;;;;;;;4.63;3.80;;;19.90;95.20;;;;;;4241625;27;20209;-78
2022/04/23 02:56:02;;;;;;;4.22;3.80;;;19.90;95.50;;;;;;4242441;27;20341;-78
2022/04/23 02:58:07;;;;;;;4.35;3.83;;;19.90;95.20;;;;;;4241709;27;20214;-78
2022/04/23 03:00:12;;;;;;;4.30;3.90;;;19.90;95.20;;;;;;4242783;27;20278;-78
2022/04/23 03:02:14;;;;;;;4.28;3.88;;;19.90;95.30;;;;;;4242163;27;20220;-78
2022/04/23 03:04:17;;;;;;;3.95;3.55;;;19.90;95.20;;;;;;4242709;27;20247;-78
2022/04/23 03:06:19;;;;;;;4.32;3.92;;;19.90;95.20;;;;;;4241050;27;20243;-78
2022/04/23 03:08:23;;;;;;;4.40;4.00;;;19.90;95.20;;;;;;4242678;27;20270;-78
2022/04/23 03:10:25;;;;;;;4.60;4.20;;;19.90;95.20;;;;;;4240629;27;20217;-78
2022/04/23 03:12:28;;;;;;;4.15;3.75;;;19.90;95.20;;;;;;4240948;27;20646;-78
2022/04/23 03:14:31;;;;;;;4.63;4.10;;;19.90;95.30;;;;;;4243147;27;20915;-78
2022/04/23 03:16:34;;;;;;;4.40;4.00;;;19.80;95.20;;;;;;4242093;27;20278;-78
2022/04/23 03:18:37;;;;;;;4.30;3.90;;;19.80;95.20;;;;;;4242877;27;20282;-78
2022/04/23 03:20:41;;;;;;;4.28;3.88;;;19.90;95.20;;;;;;4239066;27;20221;-78
2022/04/23 03:22:44;;;;;;;3.95;3.60;;;19.80;95.30;;;;;;4241319;27;20213;-78
2022/04/23 03:24:46;;;;;;;4.82;4.35;;;19.90;95.30;;;;;;4240159;27;20283;-78
2022/04/23 03:26:48;;;;;;;4.38;3.97;;;19.90;95.20;;;;;;4239432;27;20205;-78
2022/04/23 03:28:51;;;;;;;4.55;3.97;;;19.80;95.30;;;;;;4237656;27;20262;-78
2022/04/23 03:30:53;;;;;;;4.53;4.18;;;19.90;95.30;;;;;;4241565;27;20258;-78
2022/04/23 03:32:58;;;;;;;4.50;4.10;;;19.90;95.30;;;;;;4240201;27;20229;-78
2022/04/23 03:35:00;;;;;;;4.70;4.18;;;19.90;95.40;;;;;;4239398;27;20658;-78
2022/04/23 03:37:03;;;;;;;3.75;3.45;;;19.90;95.40;;;;;;4237961;27;20214;-78
2022/04/23 03:39:05;;;;;;;4.75;4.35;;;19.90;95.30;;;;;;4239634;27;20221;-78
2022/04/23 03:41:08;;;;;;;4.40;4.00;;;19.80;95.20;;;;;;4240305;27;20217;-78
2022/04/23 03:43:11;;;;;;;4.50;4.10;;;19.90;95.40;;;;;;4238810;27;20214;-78
2022/04/23 03:45:13;;;;;;;4.53;4.13;;;19.90;95.30;;;;;;4240760;27;20213;-78
2022/04/23 03:47:16;;;;;;;4.57;4.18;;;19.80;95.30;;;;;;4240768;27;20210;-78
2022/04/23 03:49:22;;;;;;;4.82;4.43;;;19.80;95.30;;;;;;4240426;27;20209;-78
2022/04/23 03:51:24;;;;;;;4.38;3.97;;;19.80;95.30;;;;;;4235512;27;20221;-78
2022/04/23 03:53:26;;;;;;;4.50;4.10;;;19.80;95.20;;;;;;4236545;27;20286;-78
2022/04/23 03:55:30;;;;;;;4.18;3.78;;;19.80;95.20;;;;;;4237950;27;20214;-78
2022/04/23 03:57:44;;;;;;;4.45;4.05;;;19.90;95.30;;;;;;4235468;27;20702;-78
2022/04/23 03:59:46;;;;;;;4.40;4.00;;;19.90;95.30;;;;;;4237870;27;20637;-78
2022/04/23 04:01:49;;;;;;;4.07;3.67;;;19.80;95.30;;;;;;4240372;27;20669;-77
2022/04/23 04:03:51;;;;;;;4.60;4.20;;;19.80;95.30;;;;;;4238910;27;20274;-77
2022/04/23 04:05:55;;;;;;;4.63;4.22;;;19.80;95.30;;;;;;4239684;27;20262;-77
2022/04/23 04:07:57;;;;;;;3.90;3.60;;;19.80;95.30;;;;;;4240450;27;20229;-78
2022/04/23 04:10:01;;;;;;;4.57;4.18;;;19.80;95.30;;;;;;4236904;27;20225;-78
2022/04/23 04:12:06;;;;;;;4.15;3.80;;;19.80;95.30;;;;;;4239293;27;20214;-78
2022/04/23 04:14:11;;;;;;;4.55;4.15;;;19.80;95.30;;;;;;4239546;27;20240;-78
2022/04/23 04:16:13;;;;;;;4.50;4.10;;;19.80;95.40;;;;;;4239148;27;20274;-78
2022/04/23 04:18:16;;;;;;;4.47;4.00;;;19.80;95.40;;;;;;4240395;27;20266;-78
2022/04/23 04:20:18;;;;;;;4.10;3.70;;;19.80;95.20;;;;;;4239048;27;20860;-78
2022/04/23 04:22:22;;;;;;;6.43;4.60;;;19.80;95.30;;;;;;4238918;27;20249;-78
2022/04/23 04:24:26;;;;;;;4.80;4.28;;;19.80;95.40;;;;;;4235591;27;20273;-78
2022/04/23 04:26:28;;;;;;;4.75;4.25;;;19.80;95.40;;;;;;4236740;27;20221;-78
2022/04/23 04:28:31;;;;;;;4.20;3.80;;;19.80;95.40;;;;;;4238292;27;20225;-78
2022/04/23 04:32:50;;;;;;;4.80;4.40;;;19.80;95.40;;;;;;4238235;27;20641;-77
2022/04/23 04:34:52;;;;;;;4.43;4.03;;;19.80;95.50;;;;;;4238735;27;20275;-78
2022/04/23 04:37:02;;;;;;;4.45;4.05;;;19.80;95.30;;;;;;4239578;27;20213;-78
2022/04/23 04:39:06;;;;;;;4.30;3.88;;;19.80;95.30;;;;;;4237368;27;20269;-78
2022/04/23 04:41:08;;;;;;;4.10;3.80;;;19.80;95.40;;;;;;4235010;27;20258;-78
2022/04/23 04:43:10;;;;;;;4.25;3.75;;;19.80;95.30;;;;;;4240365;27;20240;-78
2022/04/23 04:45:13;;;;;;;4.22;3.83;;;19.80;95.30;;;;;;4237250;27;20620;-78
2022/04/23 04:47:16;;;;;;;4.90;4.40;;;19.80;95.30;;;;;;4239379;28;20266;-78
2022/04/23 04:49:19;;;;;;;4.35;3.90;;;19.80;95.40;;;;;;4235632;28;20232;-79
2022/04/23 04:51:21;;;;;;;4.35;3.95;;;19.80;95.30;;;;;;4238654;28;20217;-78
2022/04/23 04:53:23;;;;;;;4.18;3.88;;;19.80;95.20;;;;;;4239072;28;20756;-78
2022/04/23 04:55:27;;;;;;;4.30;3.90;;;19.80;95.40;;;;;;4240804;28;20209;-78
2022/04/23 04:57:29;;;;;;;4.35;3.95;;;19.80;95.30;;;;;;4238161;28;20253;-78
2022/04/23 04:59:32;;;;;;;4.05;3.75;;;19.70;95.20;;;;;;4239185;28;20209;-78
2022/04/23 05:01:34;;;;;;;4.40;4.00;;;19.80;95.30;;;;;;4240009;28;21562;-79
2022/04/23 05:03:38;;;;;;;4.50;4.10;;;19.80;95.30;;;;;;4238216;28;20205;-78
2022/04/23 05:05:44;;;;;;;5.63;4.25;;;19.70;95.40;;;;;;4240270;27;20214;-78
2022/04/23 05:07:46;;;;;;;4.75;4.30;;;19.80;95.30;;;;;;4243666;27;20220;-78
2022/04/23 05:09:48;;;;;;;4.72;3.88;;;19.70;95.30;;;;;;4241749;27;20290;-78
2022/04/23 05:11:52;;;;;;;4.13;3.72;;;19.70;95.20;;;;;;4241516;27;20213;-78
2022/04/23 05:13:55;;;;;;;4.03;3.72;;;19.70;95.20;;;;;;4241068;27;20704;-78
2022/04/23 05:15:58;;;;;;;4.15;3.83;;;19.80;95.30;;;;;;4245040;27;20890;-78
2022/04/23 05:18:00;;;;;;;4.97;3.97;;;19.80;95.30;;;;;;4242787;27;20277;-78
2022/04/23 05:20:04;;;;;;;4.40;4.00;;;19.80;95.30;;;;;;4242106;27;20213;-78
2022/04/23 05:22:07;;;;;;;4.32;4.00;;;19.80;95.30;;;;;;4243119;27;20221;-78
2022/04/23 05:24:09;;;;;;;5.15;4.60;;;19.70;95.20;;;;;;4244132;27;20213;-78
2022/04/23 05:26:11;;;;;;;4.63;4.22;;;19.80;95.30;;;;;;4240405;27;20225;-78
2022/04/23 05:28:15;;;;;;;4.85;4.30;;;19.80;95.40;;;;;;4239159;27;20262;-78
2022/04/23 05:30:17;;;;;;;4.88;4.40;;;19.80;95.30;;;;;;4241275;27;20209;-78
2022/04/23 05:32:19;;;;;;;4.43;3.92;;;19.70;95.30;;;;;;4242051;27;20237;-78
2022/04/23 05:34:24;;;;;;;4.45;4.05;;;19.70;95.30;;;;;;4243466;27;20643;-78
2022/04/23 05:36:26;;;;;;;5.22;3.92;;;19.70;95.40;;;;;;4242891;27;20217;-78
2022/04/23 05:38:29;;;;;;;4.55;4.15;;;19.80;95.40;;;;;;4244373;27;20225;-78
2022/04/23 05:40:31;;;;;;;4.68;4.25;;;19.70;95.50;;;;;;4238214;27;20250;-78
2022/04/23 05:42:33;;;;;;;4.47;4.07;;;19.80;95.40;;;;;;4245862;27;20213;-78
2022/04/23 05:44:37;;;;;;;4.65;4.25;;;19.70;95.40;;;;;;4242763;27;20209;-78
2022/04/23 05:46:40;;;;;;;4.80;4.40;;;19.70;95.90;;;;;;4242619;27;20703;-78
2022/04/23 05:48:42;;;;;;;4.22;3.83;;;19.70;95.30;;;;;;4243633;27;20253;-78
2022/04/23 05:50:44;;;;;;;4.40;4.03;;;19.70;95.40;;;;;;4244399;27;20629;-78
2022/04/23 05:52:47;;;;;;;4.93;4.22;;;19.70;95.40;;;;;;4242556;27;20245;-78
2022/04/23 05:54:49;;;;;;;4.93;4.43;;;19.70;95.40;;;;;;4243585;27;20278;-78
2022/04/23 05:56:51;;;;;;;5.03;4.22;;;19.70;95.40;;;;;;4243066;27;20221;-78
2022/04/23 05:58:54;;;;;;;4.00;3.70;;;19.70;95.30;;;;;;4244206;27;20213;-78
2022/04/23 06:00:58;;;;;;;5.07;4.60;;;19.80;95.40;;;;;;4241632;27;20213;-78
2022/04/23 06:03:00;;;;;;;4.10;3.80;;;19.70;95.30;;;;;;4243226;27;20258;-78
2022/04/23 06:05:02;;;;;;;5.00;4.50;;;19.70;95.30;;;;;;4243321;27;20243;-77
2022/04/23 06:07:05;;;;;;;4.30;4.00;;;19.70;95.30;;;;;;4242503;27;20653;-77
2022/04/23 06:09:07;;;;;;;5.30;4.63;;;19.80;95.40;;;;;;4243110;27;20209;-78
2022/04/23 06:11:09;;;;;;;5.03;4.50;;;19.70;95.30;;;;;;4243250;27;20214;-78
2022/04/23 06:13:12;;;;;;;4.72;4.28;;;19.70;95.20;;;;;;4242504;27;20209;-78
2022/04/23 06:15:15;;;;;;;5.03;4.53;;;19.70;95.30;;;;;;4242812;27;20225;-78
2022/04/23 06:17:24;;;;;;;4.60;4.22;;;19.70;95.40;;;;;;4241844;27;20270;-77
2022/04/23 06:19:26;;;;;;;4.55;4.15;;;19.70;95.40;;;;;;4240438;27;20221;-78
2022/04/23 06:21:29;;;;;;;5.47;4.07;;;19.70;95.30;;;;;;4238050;27;21661;-78
2022/04/23 06:23:31;;;;;;;4.45;4.05;;;19.70;95.30;;;;;;4245105;27;20213;-78
2022/04/23 06:25:34;;;;;;;4.25;3.85;;;19.70;95.40;;;;;;4242059;27;20212;-78
2022/04/23 06:27:37;;;;;;;4.35;3.95;;;19.70;95.30;;;;;;4239955;27;20270;-78
2022/04/23 06:29:40;;;;;;;5.07;4.53;;;19.70;95.30;;;;;;4237045;27;20730;-78
2022/04/23 06:31:42;;;;;;;4.90;4.50;;;19.70;95.30;;;;;;4237904;27;20642;-78
2022/04/23 06:33:46;;;;;;;4.57;4.13;;;19.70;95.30;;;;;;4244940;27;20667;-78
2022/04/23 06:35:48;;;;;;;4.60;4.20;;;19.70;95.30;;;;;;4251022;27;20212;-78
2022/04/23 06:37:50;;;;;;;4.45;4.05;;;19.70;95.40;;;;;;4248786;27;20221;-78
2022/04/23 06:39:52;;;;;;;5.00;4.28;;;19.70;95.30;;;;;;4245368;27;20216;-78
2022/04/23 06:41:55;;;;;;;4.35;3.95;;;19.70;95.30;;;;;;4243653;27;20977;-78
2022/04/23 06:43:57;;;;;;;5.68;4.35;;;19.70;95.40;;;;;;4242444;27;20270;-78
2022/04/23 06:46:00;;;;;;;4.72;4.32;;;19.70;95.30;;;;;;4248486;27;20224;-78
2022/04/23 06:48:04;;;;;;;5.25;4.22;;;19.70;95.50;;;;;;4238777;27;20205;-78
2022/04/23 06:50:09;;;;;;;4.32;3.92;;;19.70;95.40;;;;;;4245005;27;20984;-78
2022/04/23 06:52:11;;;;;;;4.22;3.83;;;19.70;95.40;;;;;;4244423;27;21040;-78
2022/04/23 06:54:14;;;;;;;4.07;3.78;;;19.70;95.40;;;;;;4243244;27;20645;-78
2022/04/23 06:56:16;;;;;;;4.35;3.95;;;19.70;95.40;;;;;;4246787;27;20208;-78
2022/04/23 06:58:18;;;;;;;4.50;4.07;;;19.70;95.40;;;;;;4239943;27;20217;-78
2022/04/23 07:00:22;;;;;;;4.70;4.30;;;19.70;95.40;;;;;;4236866;27;20567;-78
2022/04/23 07:02:24;;;;;;;4.25;3.67;;;19.70;95.40;;;;;;4238446;27;20282;-78
2022/04/23 07:04:26;;;;;;;5.00;4.50;;;19.70;95.50;;;;;;4249607;27;20270;-78
2022/04/23 07:06:30;;;;;;;5.00;4.45;;;19.70;95.40;;;;;;4247941;27;20246;-78
2022/04/23 07:08:32;;;;;;;4.78;4.30;;;19.70;95.70;;;;;;4243297;27;20221;-78
2022/04/23 07:10:35;;;;;;;4.80;4.30;;;19.70;95.30;;;;;;4245991;27;20220;-77
2022/04/23 07:12:37;;;;;;;4.47;4.07;;;19.70;95.50;;;;;;4245362;27;20216;-78
2022/04/23 07:14:39;;;;;;;4.75;4.28;;;19.70;95.50;;;;;;4246072;27;20241;-78
2022/04/23 07:16:42;;;;;;;5.07;4.57;;;19.70;95.50;;;;;;4243257;27;20302;-78
2022/04/23 07:18:44;;;;;;;4.93;4.35;;;19.70;95.40;;;;;;4242118;27;20232;-78
2022/04/23 07:20:47;;;;;;;5.18;4.78;;;19.80;95.40;;;;;;4239194;27;20221;-78
2022/04/23 07:25:14;;;;;;;4.80;4.40;;;19.80;95.40;;;;;;4215491;27;20235;-77
2022/04/23 07:27:16;;;;;;;4.25;3.85;;;19.80;95.40;;;;;;4236843;27;20246;-78
2022/04/23 07:29:18;;;;;;;4.43;4.03;;;19.80;95.40;;;;;;4242509;27;20212;-78
2022/04/23 07:31:21;;;;;;;5.32;4.70;;;19.80;95.50;;;;;;4242903;27;20723;-78
2022/04/23 07:38:17;;;;;;;4.65;4.20;;;19.80;95.40;;;;;;4173208;28;20216;-78
2022/04/23 07:40:20;;;;;;;4.63;4.10;;;19.80;95.40;;;;;;4209673;27;20242;-78
2022/04/23 07:42:22;;;;;;;5.95;4.40;;;19.80;95.80;;;;;;4240184;27;20269;-77
2022/04/23 07:44:25;;;;;;;4.53;4.13;;;19.80;95.60;;;;;;4242692;27;20286;-78
2022/04/23 07:46:28;;;;;;;4.65;4.18;;;19.80;95.50;;;;;;4244171;27;20217;-78
2022/04/23 07:48:30;;;;;;;4.40;4.00;;;19.90;95.60;;;;;;4234842;27;20294;-78
2022/04/23 07:50:33;;;;;;;4.55;4.13;;;19.90;95.60;;;;;;4236380;27;20232;-77
2022/04/23 07:52:35;;;;;;;5.85;4.30;;;19.90;95.60;;;;;;4242612;27;20270;-78
2022/04/23 07:54:39;;;;;;;5.25;4.38;;;19.90;95.60;;;;;;4237905;27;20266;-78
2022/04/23 07:56:41;;;;;;;5.28;4.13;;;19.90;95.60;;;;;;4245294;27;20278;-78
2022/04/23 07:58:44;;;;;;;5.20;4.43;;;19.90;95.60;;;;;;4243870;27;20665;-78
2022/04/23 08:00:46;;;;;;;4.28;3.92;;;19.90;95.60;;;;;;4245102;27;20738;-77
2022/04/23 08:02:48;;;;;;;4.72;4.32;;;20.00;95.70;;;;;;4242491;27;20709;-78
2022/04/23 08:04:51;;;;;;;4.05;3.65;;;19.90;95.70;;;;;;4247696;27;20205;-78
2022/04/23 08:06:53;;;;;;;4.68;4.05;;;20.00;95.70;;;;;;4243010;27;20254;-77
2022/04/23 08:08:55;;;;;;;4.45;4.05;;;19.90;95.60;;;;;;4238419;27;20271;-77
2022/04/23 08:10:59;;;;;;;5.95;4.95;;;20.00;95.70;;;;;;4242130;27;20262;-78
2022/04/23 08:13:01;;;;;;;4.63;4.22;;;20.00;95.70;;;;;;4241888;27;20218;-78
2022/04/23 08:15:05;;;;;;;5.20;4.70;;;20.00;95.70;;;;;;4241439;27;20284;-78
2022/04/23 08:17:07;;;;;;;5.20;4.07;;;20.00;95.70;;;;;;4238599;27;20206;-78
2022/04/23 08:19:09;;;;;;;4.90;4.50;;;20.00;95.60;;;;;;4236247;27;20658;-78
2022/04/23 08:21:12;;;;;;;5.40;4.57;;;20.00;95.60;;;;;;4241913;27;20205;-78
2022/04/23 08:23:16;;;;;;;4.57;4.18;;;20.00;95.60;;;;;;4241271;27;20209;-78
2022/04/23 08:25:18;;;;;;;4.20;3.90;;;20.00;95.70;;;;;;4242944;27;20267;-77
2022/04/23 08:27:22;;;;;;;4.75;4.35;;;20.10;95.70;;;;;;4244491;27;20604;-78
2022/04/23 08:31:44;;;;;;;5.07;4.50;;;20.10;95.60;;;;;;4244276;27;20206;-78
2022/04/23 08:34:01;;;;;;;4.90;4.22;;;20.10;95.80;;;;;;4242068;27;20339;-78
2022/04/23 08:36:04;;;;;;;4.55;4.15;;;20.10;95.60;;;;;;4241994;27;20236;-78
2022/04/23 08:38:07;;;;;;;4.60;4.20;;;20.10;95.60;;;;;;4242847;27;20285;-78
2022/04/23 08:40:13;;;;;;;4.50;4.10;;;20.10;95.80;;;;;;4243486;27;20208;-78
2022/04/23 08:42:18;;;;;;;4.95;4.50;;;20.10;95.70;;;;;;4241370;27;20298;-78
2022/04/23 08:44:22;;;;;;;4.47;3.85;;;20.10;95.50;;;;;;4235760;27;20274;-78
2022/04/23 08:46:27;;;;;;;4.68;4.28;;;20.10;95.70;;;;;;4244125;27;20253;-77
2022/04/23 08:48:35;;;;;;;4.32;4.00;;;20.20;95.60;;;;;;4244508;27;20228;-78
2022/04/23 08:50:39;;;;;;;4.32;4.00;;;20.20;95.70;;;;;;4245010;27;20719;-78
2022/04/23 08:52:43;;;;;;;5.28;4.35;;;20.20;95.70;;;;;;4244909;27;20217;-77
2022/04/23 08:54:46;;;;;;;4.63;4.22;;;20.20;95.60;;;;;;4242402;27;20217;-77
2022/04/23 08:56:48;;;;;;;4.85;4.38;;;20.20;95.50;;;;;;4241847;27;20234;-78
2022/04/23 08:58:51;;;;;;;4.68;4.15;;;20.20;95.60;;;;;;4237712;27;20218;-76
2022/04/23 09:00:54;;;;;;;4.80;4.40;;;20.20;95.60;;;;;;4240755;27;20208;-78
2022/04/23 09:02:57;;;;;;;4.43;4.03;;;20.20;95.60;;;;;;4240911;27;20221;-78
2022/04/23 09:04:59;;;;;;;4.53;4.13;;;20.20;95.60;;;;;;4243401;27;20221;-77
2022/04/23 09:07:01;;;;;;;4.07;3.78;;;20.30;95.90;;;;;;4247367;27;20289;-78
2022/04/23 09:09:13;;;;;;;4.47;4.07;;;20.30;95.50;;;;;;4242346;27;20950;-78
2022/04/23 09:11:35;;;;;;;4.28;3.88;;;20.20;95.40;;;;;;4243390;27;20212;-78
2022/04/23 09:13:37;;;;;;;4.25;3.75;;;20.30;95.50;;;;;;4243585;27;20217;-77
2022/04/23 09:25:02;;;;;;;5.10;4.60;;;20.30;95.50;;;;;;4235844;27;20641;-77
2022/04/23 09:27:06;;;;;;;4.25;3.85;;;20.30;95.50;;;;;;4241338;27;20217;-78
2022/04/23 09:29:17;;;;;;;4.50;4.10;;;20.30;95.50;;;;;;4245004;27;20221;-77
2022/04/23 09:31:20;;;;;;;4.32;4.03;;;20.30;95.50;;;;;;4246254;27;20208;-77
2022/04/23 09:33:28;;;;;;;4.60;4.20;;;20.30;95.40;;;;;;4223128;27;20230;-77
2022/04/23 09:35:30;;;;;;;4.32;3.92;;;20.30;95.50;;;;;;4216326;28;20217;-77
2022/04/23 09:38:11;;;;;;;4.85;4.43;;;20.30;95.30;;;;;;4218020;28;20494;-77
2022/04/23 09:39:55;;;;;;;4.47;4.07;;;20.30;95.40;;;;;;4215951;28;20260;-77
2022/04/23 09:42:12;;;;;;;4.22;3.92;;;20.40;95.40;;;;;;4216686;28;20221;-77
2022/04/23 09:44:14;;;;;;;4.28;3.95;;;20.30;95.40;;;;;;4214689;28;20234;-77
2022/04/23 09:46:17;;;;;;;4.47;4.07;;;20.40;95.40;;;;;;4214931;28;20211;-77
2022/04/23 09:48:19;;;;;;;4.60;4.20;;;20.40;95.40;;;;;;4212698;28;20263;-78
2022/04/23 09:50:23;;;;;;;4.25;3.83;;;20.40;95.40;;;;;;4213913;28;20974;-78
2022/04/23 09:52:28;;;;;;;4.68;4.28;;;20.40;95.40;;;;;;4217918;27;20213;-77
2022/04/23 09:54:31;;;;;;;5.25;4.03;;;20.40;95.50;;;;;;4232541;27;20294;-78
2022/04/23 09:56:34;;;;;;;4.93;4.45;;;20.40;95.50;;;;;;4240598;27;20244;-77
2022/04/23 09:58:37;;;;;;;4.65;4.05;;;20.40;95.40;;;;;;4240184;27;20265;-77
2022/04/23 10:00:41;;;;;;;4.60;4.20;;;20.40;95.80;;;;;;4238654;27;20225;-78
2022/04/23 10:02:46;;;;;;;4.53;4.10;;;20.40;95.40;;;;;;4241505;27;20213;-78
2022/04/23 10:04:50;;;;;;;4.28;3.92;;;20.50;95.40;;;;;;4242268;27;20605;-77
2022/04/23 10:06:56;;;;;;;4.35;3.95;;;20.50;95.50;;;;;;4242931;27;20206;-77
2022/04/23 10:09:00;;;;;;;4.38;3.92;;;20.40;95.50;;;;;;4240755;27;20209;-77
2022/04/23 10:11:12;;;;;;;4.40;3.92;;;20.50;95.50;;;;;;4241893;27;20606;-78
2022/04/23 10:13:17;;;;;;;3.85;3.55;;;20.40;95.40;;;;;;4241562;27;20608;-77
2022/04/23 10:15:20;;;;;;;4.03;3.63;;;20.50;95.80;;;;;;4241769;27;20209;-77
2022/04/23 10:17:24;;;;;;;4.63;4.00;;;20.50;95.50;;;;;;4239505;27;20235;-77
2022/04/23 10:19:28;;;;;;;4.35;3.95;;;20.50;95.60;;;;;;4241994;27;20214;-78
2022/04/23 10:21:35;;;;;;;4.38;3.97;;;20.50;95.60;;;;;;4243225;27;20944;-78
2022/04/23 10:23:51;;;;;;;4.07;3.78;;;20.50;95.60;;;;;;4240727;27;20254;-77
2022/04/23 10:26:14;;;;;;;4.32;4.03;;;20.50;95.60;;;;;;4242099;27;20657;-77
2022/04/23 10:28:18;;;;;;;4.47;4.03;;;20.50;95.50;;;;;;4240591;27;20243;-77
2022/04/23 10:30:21;;;;;;;4.28;3.88;;;20.50;95.50;;;;;;4243688;27;20212;-77
2022/04/23 10:32:24;;;;;;;4.47;4.07;;;20.50;95.60;;;;;;4243534;27;20240;-77
2022/04/23 10:34:33;;;;;;;4.22;3.83;;;20.50;95.60;;;;;;4242589;27;20217;-77
2022/04/23 10:36:35;;;;;;;4.55;3.67;;;20.50;95.50;;;;;;4241756;27;20652;-77
2022/04/23 10:38:42;;;;;;;4.35;3.95;;;20.60;95.70;;;;;;4242287;27;20734;-77
2022/04/23 10:40:45;;;;;;;4.60;3.90;;;20.60;95.70;;;;;;4241639;27;20222;-77
2022/04/23 10:43:12;;;;;;;5.10;4.18;;;20.60;95.70;;;;;;4239897;27;20213;-77
2022/04/23 10:45:14;;;;;;;4.20;3.78;;;20.60;95.90;;;;;;4240821;27;20214;-77
2022/04/23 10:47:29;;;;;;;3.85;3.55;;;20.60;95.70;;;;;;4242741;27;20220;-78
2022/04/23 10:49:32;;;;;;;4.47;4.07;;;20.60;95.90;;;;;;4240102;27;20217;-77
2022/04/23 10:51:45;;;;;;;4.32;3.92;;;20.60;95.70;;;;;;4242470;27;20225;-77
2022/04/23 10:53:56;;;;;;;4.53;4.13;;;20.60;96.00;;;;;;4240739;27;20353;-77
2022/04/23 10:56:08;;;;;;;4.22;3.80;;;20.60;95.90;;;;;;4240511;27;20262;-77
2022/04/23 10:58:21;;;;;;;4.57;4.18;;;20.60;95.90;;;;;;4239891;27;20261;-78
2022/04/23 11:00:27;;;;;;;4.00;3.70;;;20.70;96.10;;;;;;4240807;27;20217;-77
2022/04/23 11:02:33;;;;;;;4.50;4.10;;;20.60;96.00;;;;;;4240254;27;20225;-77
2022/04/23 11:12:14;;;;;;;4.53;3.83;;;20.60;95.90;;;;;;4235767;27;20262;-78
2022/04/23 11:12:22;;;;;;;4.68;4.25;;;20.70;95.80;;;;;;4239998;27;20201;-77